createdAt,value
2019-02-08T00:00:13.333Z,62.21
2019-02-08T00:02:40.389Z,61.73
2019-02-08T00:05:08.327Z,61.34
2019-02-08T00:07:34.891Z,61.89
2019-02-08T00:10:01.852Z,61.62
2019-02-08T00:12:28.455Z,61.82
2019-02-08T00:14:55.003Z,62.01
2019-02-08T00:17:21.650Z,62.04
2019-02-08T00:19:48.320Z,61.81
2019-02-08T00:22:14.879Z,61.83
2019-02-08T00:24:41.484Z,62.05
2019-02-08T00:27:08.060Z,62.12
2019-02-08T00:29:34.784Z,62.14
2019-02-08T00:32:01.438Z,62.00
2019-02-08T00:34:28.036Z,62.09
2019-02-08T00:36:54.711Z,61.95
2019-02-08T00:39:21.295Z,61.98
2019-02-08T00:41:48.298Z,61.49
2019-02-08T00:44:14.853Z,61.65
2019-02-08T00:46:41.440Z,62.06
2019-02-08T00:49:08.064Z,61.71
2019-02-08T00:51:34.654Z,61.87
2019-02-08T00:54:01.206Z,62.52
2019-02-08T00:56:27.823Z,62.82
2019-02-08T00:58:54.368Z,62.38
2019-02-08T01:01:21.018Z,62.16
2019-02-08T01:03:47.663Z,62.19
2019-02-08T01:06:14.214Z,62.27
2019-02-08T01:08:42.218Z,62.44
2019-02-08T01:11:08.909Z,62.44
2019-02-08T01:13:35.514Z,62.71
2019-02-08T01:16:02.911Z,63.04
2019-02-08T01:18:29.531Z,62.59
2019-02-08T01:20:56.086Z,62.35
2019-02-08T01:23:22.953Z,62.58
2019-02-08T01:25:49.568Z,62.73
2019-02-08T01:28:16.185Z,62.72
2019-02-08T01:30:42.814Z,62.60
2019-02-08T01:33:09.521Z,62.87
2019-02-08T01:35:36.130Z,63.18
2019-02-08T01:38:02.881Z,63.18
2019-02-08T01:40:34.698Z,62.70
2019-02-08T01:43:01.365Z,62.75
2019-02-08T01:45:30.954Z,63.24
2019-02-08T01:47:57.842Z,63.03
2019-02-08T01:50:27.303Z,63.12
2019-02-08T01:52:53.862Z,62.95
2019-02-08T01:55:21.014Z,63.20
2019-02-08T01:57:49.254Z,63.27
2019-02-08T02:00:20.827Z,62.98
2019-02-08T02:02:47.411Z,62.76
2019-02-08T02:05:14.869Z,62.85
2019-02-08T02:07:41.540Z,62.74
2019-02-08T02:10:13.958Z,63.15
2019-02-08T02:12:40.519Z,63.13
2019-02-08T02:15:07.456Z,63.66
2019-02-08T02:17:34.115Z,62.98
2019-02-08T02:20:00.749Z,63.34
2019-02-08T02:22:27.341Z,63.52
2019-02-08T02:24:53.929Z,63.37
2019-02-08T02:27:20.487Z,63.48
2019-02-08T02:29:47.058Z,63.52
2019-02-08T02:32:13.684Z,63.00
2019-02-08T02:34:40.235Z,63.50
2019-02-08T02:37:07.249Z,63.87
2019-02-08T02:39:34.014Z,63.64
2019-02-08T02:42:00.609Z,63.72
2019-02-08T02:44:27.211Z,63.65
2019-02-08T02:46:53.843Z,64.63
2019-02-08T02:49:20.483Z,63.86
2019-02-08T02:51:47.018Z,64.39
2019-02-08T02:54:14.679Z,64.78
2019-02-08T02:56:41.342Z,64.29
2019-02-08T02:59:08.097Z,64.05
2019-02-08T03:01:34.653Z,64.46
2019-02-08T03:04:02.689Z,63.88
2019-02-08T03:06:29.374Z,63.62
2019-02-08T03:08:55.943Z,63.69
2019-02-08T03:11:22.535Z,63.84
2019-02-08T03:13:49.074Z,63.97
2019-02-08T03:16:15.745Z,64.53
2019-02-08T03:18:42.545Z,64.71
2019-02-08T03:21:10.614Z,64.79
2019-02-08T03:23:37.231Z,64.85
2019-02-08T03:26:03.822Z,64.38
2019-02-08T03:28:30.457Z,64.17
2019-02-08T03:30:58.591Z,64.16
2019-02-08T03:33:25.183Z,64.76
2019-02-08T03:35:54.898Z,64.93
2019-02-08T03:38:21.508Z,64.91
2019-02-08T03:40:48.088Z,65.32
2019-02-08T03:43:17.510Z,65.17
2019-02-08T03:45:46.173Z,65.34
2019-02-08T03:48:12.879Z,65.74
2019-02-08T03:50:39.565Z,65.98
2019-02-08T03:53:07.379Z,66.23
2019-02-08T03:55:33.978Z,66.36
2019-02-08T03:58:00.623Z,66.08
2019-02-08T04:00:33.308Z,66.29
2019-02-08T04:02:59.920Z,66.45
2019-02-08T04:05:26.524Z,66.56
2019-02-08T04:07:53.784Z,66.89
2019-02-08T04:10:20.526Z,66.96
2019-02-08T04:12:47.141Z,67.41
2019-02-08T04:15:19.048Z,67.55
2019-02-08T04:17:45.724Z,67.76
2019-02-08T04:20:15.625Z,67.58
2019-02-08T04:22:42.285Z,67.74
2019-02-08T04:25:12.960Z,68.21
2019-02-08T04:27:39.759Z,68.62
2019-02-08T04:30:12.140Z,69.21
2019-02-08T04:32:38.706Z,69.60
2019-02-08T04:35:05.324Z,70.70
2019-02-08T04:37:31.846Z,71.09
2019-02-08T04:39:58.406Z,70.60
2019-02-08T04:42:25.033Z,71.30
2019-02-08T04:44:51.629Z,72.60
2019-02-08T04:47:18.233Z,72.20
2019-02-08T04:49:45.008Z,72.30
2019-02-08T04:52:11.579Z,72.58
2019-02-08T04:54:38.681Z,72.92
2019-02-08T04:57:05.501Z,73.42
2019-02-08T04:59:32.236Z,73.55
2019-02-08T05:01:58.834Z,73.44
2019-02-08T05:04:25.508Z,73.41
2019-02-08T05:06:52.171Z,73.64
2019-02-08T05:09:18.770Z,73.74
2019-02-08T05:11:45.363Z,73.63
2019-02-08T05:14:12.024Z,73.54
2019-02-08T05:16:38.650Z,73.71
2019-02-08T05:19:05.179Z,73.65
2019-02-08T05:21:31.795Z,73.72
2019-02-08T05:23:58.376Z,74.09
2019-02-08T05:26:24.992Z,74.06
2019-02-08T05:28:51.817Z,73.88
2019-02-08T05:31:18.629Z,73.90
2019-02-08T05:33:45.322Z,74.20
2019-02-08T05:36:11.915Z,74.47
2019-02-08T05:38:39.784Z,73.91
2019-02-08T05:41:06.370Z,74.08
2019-02-08T05:43:34.528Z,74.17
2019-02-08T05:46:01.080Z,74.14
2019-02-08T05:48:27.632Z,74.32
2019-02-08T05:50:54.257Z,74.28
2019-02-08T05:53:20.891Z,74.10
2019-02-08T05:55:48.549Z,74.60
2019-02-08T05:58:15.141Z,74.39
2019-02-08T06:00:46.547Z,74.54
2019-02-08T06:03:13.179Z,74.66
2019-02-08T06:05:39.938Z,74.92
2019-02-08T06:08:07.136Z,74.35
2019-02-08T06:10:34.911Z,74.44
2019-02-08T06:13:01.445Z,74.30
2019-02-08T06:15:28.046Z,74.16
2019-02-08T06:17:54.599Z,73.77
2019-02-08T06:20:24.489Z,73.43
2019-02-08T06:22:51.028Z,73.21
2019-02-08T06:25:20.088Z,73.16
2019-02-08T06:27:46.989Z,73.56
2019-02-08T06:30:18.022Z,73.25
2019-02-08T06:32:44.838Z,73.03
2019-02-08T06:35:12.848Z,73.51
2019-02-08T06:37:44.478Z,73.58
2019-02-08T06:40:13.757Z,73.17
2019-02-08T06:42:40.352Z,73.13
2019-02-08T06:45:12.510Z,73.08
2019-02-08T06:47:39.179Z,72.40
2019-02-08T06:50:11.314Z,72.54
2019-02-08T06:52:37.875Z,72.46
2019-02-08T06:55:10.943Z,72.21
2019-02-08T06:57:37.186Z,72.29
2019-02-08T07:00:10.302Z,71.76
2019-02-08T07:02:38.774Z,72.19
2019-02-08T07:05:10.354Z,71.95
2019-02-08T07:07:38.819Z,71.77
2019-02-08T07:10:11.556Z,71.75
2019-02-08T07:12:40.015Z,71.45
2019-02-08T07:15:10.296Z,71.05
2019-02-08T07:17:38.821Z,71.34
2019-02-08T07:20:11.027Z,71.18
2019-02-08T07:22:39.552Z,71.04
2019-02-08T07:25:09.949Z,70.53
2019-02-08T07:27:38.468Z,70.41
2019-02-08T07:30:12.692Z,70.22
2019-02-08T07:32:42.408Z,70.24
2019-02-08T07:35:11.800Z,69.55
2019-02-08T07:37:40.267Z,70.27
2019-02-08T07:40:14.488Z,70.01
2019-02-08T07:42:41.039Z,70.10
2019-02-08T07:45:09.607Z,69.90
2019-02-08T07:47:38.183Z,69.39
2019-02-08T07:50:11.954Z,69.39
2019-02-08T07:52:40.474Z,69.51
2019-02-08T07:55:12.705Z,69.22
2019-02-08T07:57:41.211Z,69.20
2019-02-08T08:00:15.168Z,68.61
2019-02-08T08:02:43.628Z,68.69
2019-02-08T08:05:12.321Z,68.62
2019-02-08T08:07:41.140Z,68.99
2019-02-08T08:10:14.643Z,69.00
2019-02-08T08:12:43.544Z,68.57
2019-02-08T08:15:16.353Z,68.69
2019-02-08T08:17:45.018Z,68.75
2019-02-08T08:20:18.553Z,68.73
2019-02-08T08:22:47.290Z,68.82
2019-02-08T08:25:15.830Z,68.59
2019-02-08T08:27:44.917Z,68.71
2019-02-08T08:30:19.124Z,68.44
2019-02-08T08:32:50.020Z,68.46
2019-02-08T08:35:22.391Z,68.31
2019-02-08T08:37:54.790Z,68.07
2019-02-08T08:40:27.073Z,67.75
2019-02-08T08:42:59.374Z,66.87
2019-02-08T08:45:31.693Z,67.72
2019-02-08T08:48:04.004Z,67.18
2019-02-08T08:50:34.444Z,67.09
2019-02-08T08:53:06.879Z,66.25
2019-02-08T08:55:42.271Z,65.86
2019-02-08T08:58:13.448Z,65.95
2019-02-08T09:00:45.795Z,65.38
2019-02-08T09:03:18.054Z,64.99
2019-02-08T09:05:52.310Z,64.85
2019-02-08T09:08:24.710Z,65.38
2019-02-08T09:10:57.177Z,65.58
2019-02-08T09:13:27.582Z,65.40
2019-02-08T09:15:59.887Z,65.60
2019-02-08T09:18:30.334Z,65.86
2019-02-08T09:21:02.706Z,65.61
2019-02-08T09:23:35.072Z,65.63
2019-02-08T09:26:07.412Z,64.73
2019-02-08T09:28:40.950Z,65.23
2019-02-08T09:31:11.373Z,65.03
2019-02-08T09:33:43.659Z,64.93
2019-02-08T09:36:16.064Z,63.94
2019-02-08T09:38:48.421Z,64.14
2019-02-08T09:41:18.860Z,63.31
2019-02-08T09:43:49.304Z,62.72
2019-02-08T09:46:21.685Z,62.45
2019-02-08T09:48:53.987Z,62.70
2019-02-08T09:51:26.355Z,62.16
2019-02-08T09:53:58.678Z,61.63
2019-02-08T09:56:31.146Z,61.42
2019-02-08T09:59:03.446Z,61.44
2019-02-08T10:01:33.922Z,61.66
2019-02-08T10:04:06.391Z,61.23
2019-02-08T10:06:38.836Z,61.30
2019-02-08T10:09:11.101Z,60.82
2019-02-08T10:11:43.573Z,61.39
2019-02-08T10:14:15.938Z,61.48
2019-02-08T10:16:52.031Z,61.54
2019-02-08T10:19:24.291Z,60.53
2019-02-08T10:21:56.628Z,60.16
2019-02-08T10:24:28.970Z,59.65
2019-02-08T10:27:01.352Z,60.73
2019-02-08T10:29:33.677Z,59.80
2019-02-08T10:32:07.145Z,59.23
2019-02-08T10:34:39.465Z,59.57
2019-02-08T10:37:11.877Z,59.02
2019-02-08T10:39:44.162Z,59.13
2019-02-08T10:42:16.533Z,58.70
2019-02-08T10:44:48.865Z,58.18
2019-02-08T10:47:21.263Z,59.02
2019-02-08T10:49:53.585Z,58.66
2019-02-08T10:52:25.877Z,59.08
2019-02-08T10:54:58.150Z,58.14
2019-02-08T10:57:30.513Z,59.05
2019-02-08T11:00:02.781Z,59.19
2019-02-08T11:02:36.561Z,59.57
2019-02-08T11:05:08.977Z,59.34
2019-02-08T11:07:41.341Z,58.97
2019-02-08T11:10:13.618Z,58.24
2019-02-08T11:12:46.033Z,57.73
2019-02-08T11:15:18.357Z,57.59
2019-02-08T11:17:52.498Z,57.80
2019-02-08T11:20:19.127Z,58.25
2019-02-08T11:22:45.794Z,57.36
2019-02-08T11:25:12.379Z,57.74
2019-02-08T11:27:38.958Z,57.16
2019-02-08T11:30:11.199Z,56.94
2019-02-08T11:32:43.199Z,56.63
2019-02-08T11:35:08.716Z,57.79
2019-02-08T11:37:35.338Z,56.87
2019-02-08T11:40:07.648Z,56.54
2019-02-08T11:42:34.196Z,56.25
2019-02-08T11:45:00.775Z,56.95
2019-02-08T11:47:27.332Z,57.24
2019-02-08T11:49:53.878Z,56.90
2019-02-08T11:52:20.467Z,56.99
2019-02-08T11:54:47.022Z,56.60
2019-02-08T11:57:13.611Z,57.01
2019-02-08T11:59:40.167Z,57.18
2019-02-08T12:02:06.941Z,57.12
2019-02-08T12:04:33.616Z,56.77
2019-02-08T12:07:00.217Z,56.01
2019-02-08T12:09:26.771Z,56.33
2019-02-08T12:11:53.340Z,56.29
2019-02-08T12:14:19.956Z,56.66
2019-02-08T12:16:46.512Z,56.56
2019-02-08T12:19:13.074Z,57.00
2019-02-08T12:21:39.864Z,56.64
2019-02-08T12:24:06.755Z,56.51
2019-02-08T12:26:37.867Z,56.17
2019-02-08T12:29:01.891Z,56.63
2019-02-08T12:31:28.795Z,56.78
2019-02-08T12:33:55.388Z,56.87
2019-02-08T12:36:21.983Z,56.23
2019-02-08T12:38:49.453Z,56.74
2019-02-08T12:41:16.004Z,56.24
2019-02-08T12:43:42.631Z,56.61
2019-02-08T12:46:09.250Z,56.46
2019-02-08T12:48:36.528Z,56.17
2019-02-08T12:51:03.573Z,56.17
2019-02-08T12:53:30.166Z,55.91
2019-02-08T12:55:56.774Z,56.06
2019-02-08T12:58:23.467Z,55.55
2019-02-08T13:00:50.061Z,55.86
2019-02-08T13:03:16.720Z,55.79
2019-02-08T13:05:43.386Z,55.73
2019-02-08T13:08:10.049Z,55.78
2019-02-08T13:10:36.739Z,55.30
2019-02-08T13:13:03.380Z,56.00
2019-02-08T13:15:29.982Z,55.95
2019-02-08T13:17:56.612Z,55.59
2019-02-08T13:20:23.654Z,55.58
2019-02-08T13:22:51.899Z,55.61
2019-02-08T13:25:18.739Z,55.74
2019-02-08T13:27:47.191Z,55.32
2019-02-08T13:30:19.002Z,55.67
2019-02-08T13:32:45.572Z,55.80
2019-02-08T13:35:12.116Z,55.47
2019-02-08T13:37:38.699Z,55.52
2019-02-08T13:40:11.104Z,55.56
2019-02-08T13:42:37.848Z,55.08
2019-02-08T13:45:09.999Z,55.04
2019-02-08T13:47:37.387Z,55.51
2019-02-08T13:50:09.997Z,54.85
2019-02-08T13:52:36.662Z,55.68
2019-02-08T13:55:07.991Z,55.24
2019-02-08T13:57:34.588Z,55.17
2019-02-08T14:00:01.173Z,55.09
2019-02-08T14:02:27.735Z,55.08
2019-02-08T14:04:54.284Z,54.82
2019-02-08T14:07:20.867Z,54.68
2019-02-08T14:09:47.425Z,55.10
2019-02-08T14:12:14.044Z,54.83
2019-02-08T14:14:40.638Z,55.57
2019-02-08T14:17:07.380Z,55.71
2019-02-08T14:19:33.951Z,56.10
2019-02-08T14:22:00.610Z,56.67
2019-02-08T14:24:27.193Z,56.96
2019-02-08T14:26:53.760Z,56.99
2019-02-08T14:29:20.350Z,56.72
2019-02-08T14:31:46.875Z,56.88
2019-02-08T14:34:13.420Z,56.73
2019-02-08T14:36:40.014Z,56.15
2019-02-08T14:39:08.243Z,55.89
2019-02-08T14:41:35.084Z,56.16
2019-02-08T14:44:01.651Z,56.98
2019-02-08T14:46:28.181Z,57.15
2019-02-08T14:48:57.205Z,57.15
2019-02-08T14:51:23.235Z,57.20
2019-02-08T14:53:49.855Z,57.16
2019-02-08T14:56:16.907Z,57.26
2019-02-08T14:58:43.591Z,57.53
2019-02-08T15:01:10.163Z,57.54
2019-02-08T15:03:36.773Z,57.48
2019-02-08T15:06:03.374Z,58.16
2019-02-08T15:08:31.625Z,58.69
2019-02-08T15:10:58.165Z,59.18
2019-02-08T15:13:24.743Z,59.57
2019-02-08T15:15:51.318Z,59.81
2019-02-08T15:18:18.790Z,59.74
2019-02-08T15:20:45.742Z,60.40
2019-02-08T15:23:12.378Z,60.09
2019-02-08T15:25:38.925Z,60.45
2019-02-08T15:28:05.562Z,60.47
2019-02-08T15:30:36.108Z,60.63
2019-02-08T15:33:04.241Z,60.88
2019-02-08T15:35:30.871Z,61.71
2019-02-08T15:37:57.793Z,61.42
2019-02-08T15:40:29.631Z,62.25
2019-02-08T15:42:57.318Z,61.94
2019-02-08T15:45:24.895Z,62.16
2019-02-08T15:47:51.408Z,61.84
2019-02-08T15:50:18.067Z,62.23
2019-02-08T15:52:44.734Z,62.33
2019-02-08T15:55:17.107Z,62.31
2019-02-08T15:57:43.854Z,62.38
2019-02-08T16:00:15.967Z,62.80
2019-02-08T16:02:42.621Z,62.61
2019-02-08T16:05:14.403Z,63.12
2019-02-08T16:07:41.029Z,63.02
2019-02-08T16:10:08.920Z,63.04
2019-02-08T16:12:35.479Z,63.14
2019-02-08T16:15:07.534Z,63.90
2019-02-08T16:17:34.246Z,64.29
2019-02-08T16:20:00.906Z,64.78
2019-02-08T16:22:27.431Z,65.99
2019-02-08T16:24:53.982Z,64.97
2019-02-08T16:27:20.599Z,65.41
2019-02-08T16:29:47.135Z,66.55
2019-02-08T16:32:13.775Z,65.25
2019-02-08T16:34:40.348Z,66.10
2019-02-08T16:37:06.934Z,65.94
2019-02-08T16:39:33.579Z,66.34
2019-02-08T16:42:00.206Z,66.90
2019-02-08T16:44:27.879Z,67.46
2019-02-08T16:46:54.494Z,68.99
2019-02-08T16:49:21.035Z,69.53
2019-02-08T16:51:47.920Z,70.33
2019-02-08T16:54:14.495Z,70.44
2019-02-08T16:56:41.100Z,70.96
2019-02-08T16:59:07.949Z,69.94
2019-02-08T17:01:37.627Z,68.95
2019-02-08T17:04:05.093Z,68.78
2019-02-08T17:06:32.754Z,68.69
2019-02-08T17:08:59.565Z,68.20
2019-02-08T17:11:26.227Z,68.48
2019-02-08T17:13:52.808Z,68.27
2019-02-08T17:16:19.520Z,68.22
2019-02-08T17:18:46.130Z,67.83
2019-02-08T17:21:13.363Z,68.62
2019-02-08T17:23:40.126Z,69.10
2019-02-08T17:26:06.815Z,69.37
2019-02-08T17:28:33.363Z,70.18
2019-02-08T17:30:59.965Z,71.08
2019-02-08T17:33:26.598Z,71.34
2019-02-08T17:35:53.240Z,71.76
2019-02-08T17:38:21.749Z,72.31
2019-02-08T17:40:48.545Z,71.44
2019-02-08T17:43:15.632Z,70.91
2019-02-08T17:45:42.289Z,71.43
2019-02-08T17:48:13.150Z,72.05
2019-02-08T17:50:39.839Z,72.41
2019-02-08T17:53:06.600Z,70.86
2019-02-08T17:55:33.286Z,70.64
2019-02-08T17:58:03.745Z,70.12
2019-02-08T18:00:36.939Z,69.65
2019-02-08T18:03:03.693Z,70.00
2019-02-08T18:05:30.407Z,70.25
2019-02-08T18:07:57.102Z,70.63
2019-02-08T18:10:25.944Z,71.37
2019-02-08T18:12:52.679Z,71.90
2019-02-08T18:15:22.083Z,72.60
2019-02-08T18:17:48.706Z,73.78
2019-02-08T18:20:21.054Z,73.12
2019-02-08T18:22:47.876Z,73.03
2019-02-08T18:25:14.863Z,73.39
2019-02-08T18:27:42.506Z,74.81
2019-02-08T18:30:14.456Z,75.48
2019-02-08T18:32:41.223Z,75.21
2019-02-08T18:35:07.932Z,75.61
2019-02-08T18:37:35.398Z,75.70
2019-02-08T18:40:06.762Z,75.64
2019-02-08T18:42:33.341Z,75.91
2019-02-08T18:45:01.015Z,75.19
2019-02-08T18:47:27.836Z,75.60
2019-02-08T18:49:54.418Z,75.70
2019-02-08T18:52:22.175Z,75.37
2019-02-08T18:54:49.171Z,75.93
2019-02-08T18:57:15.757Z,76.06
2019-02-08T18:59:42.376Z,76.50
2019-02-08T19:02:12.040Z,75.90
2019-02-08T19:04:39.226Z,76.00
2019-02-08T19:07:06.102Z,76.07
2019-02-08T19:09:34.676Z,75.75
2019-02-08T19:12:01.562Z,75.57
2019-02-08T19:14:28.926Z,76.12
2019-02-08T19:16:55.721Z,75.55
2019-02-08T19:19:22.314Z,74.67
2019-02-08T19:21:48.912Z,74.38
2019-02-08T19:24:15.509Z,75.34
2019-02-08T19:26:42.114Z,75.67
2019-02-08T19:29:08.712Z,75.57
2019-02-08T19:31:35.262Z,74.45
2019-02-08T19:34:01.924Z,75.73
2019-02-08T19:37:25.302Z,74.43
2019-02-08T19:39:52.114Z,75.09
2019-02-08T19:42:18.862Z,75.09
2019-02-08T19:44:45.638Z,73.89
2019-02-08T19:47:12.300Z,74.50
2019-02-08T19:49:38.858Z,73.95
2019-02-08T19:52:05.419Z,73.80
2019-02-08T19:54:32.063Z,73.95
2019-02-08T19:57:01.707Z,75.05
2019-02-08T19:59:28.338Z,74.58
2019-02-08T20:01:54.926Z,73.90
2019-02-08T20:04:22.625Z,73.94
2019-02-08T20:06:49.353Z,73.32
2019-02-08T20:09:16.041Z,72.84
2019-02-08T20:11:43.060Z,73.79
2019-02-08T20:14:09.731Z,75.09
2019-02-08T20:16:36.322Z,76.28
2019-02-08T20:19:03.020Z,75.06
2019-02-08T20:21:30.139Z,75.18
2019-02-08T20:23:56.897Z,75.32
2019-02-08T20:26:23.814Z,74.08
2019-02-08T20:28:52.511Z,73.94
2019-02-08T20:31:20.699Z,73.10
2019-02-08T20:33:47.481Z,73.44
2019-02-08T20:36:14.634Z,74.60
2019-02-08T20:38:42.527Z,73.34
2019-02-08T20:41:09.266Z,74.60
2019-02-08T20:43:40.091Z,74.88
2019-02-08T20:46:07.239Z,74.99
2019-02-08T20:48:34.071Z,75.63
2019-02-08T20:51:00.791Z,75.41
2019-02-08T20:53:29.268Z,76.34
2019-02-08T20:55:56.117Z,75.87
2019-02-08T20:58:23.888Z,75.36
2019-02-08T21:00:50.590Z,75.39
2019-02-08T21:03:17.471Z,74.84
2019-02-08T21:05:47.289Z,75.30
2019-02-08T21:08:14.468Z,75.27
2019-02-08T21:10:41.348Z,75.53
2019-02-08T21:13:08.662Z,75.51
2019-02-08T21:15:35.368Z,75.40
2019-02-08T21:18:03.576Z,76.08
2019-02-08T21:20:30.175Z,75.29
2019-02-08T21:22:57.122Z,76.15
2019-02-08T21:25:28.961Z,75.87
2019-02-08T21:27:55.539Z,76.35
2019-02-08T21:30:22.177Z,76.30
2019-02-08T21:32:48.792Z,76.50
2019-02-08T21:35:18.004Z,75.49
2019-02-08T21:37:44.830Z,74.75
2019-02-08T21:40:16.908Z,75.21
2019-02-08T21:42:43.466Z,75.51
2019-02-08T21:45:15.798Z,74.86
2019-02-08T21:47:42.431Z,74.99
2019-02-08T21:50:14.232Z,75.36
2019-02-08T21:52:40.819Z,74.86
2019-02-08T21:55:11.404Z,73.98
2019-02-08T21:57:38.005Z,73.79
2019-02-08T22:00:10.467Z,72.37
2019-02-08T22:02:37.131Z,73.33
2019-02-08T22:05:09.639Z,73.61
2019-02-08T22:07:36.266Z,74.23
2019-02-08T22:10:08.178Z,74.66
2019-02-08T22:12:34.723Z,73.70
2019-02-08T22:15:01.484Z,73.15
2019-02-08T22:17:29.904Z,73.81
2019-02-08T22:19:56.541Z,75.14
2019-02-08T22:22:23.291Z,74.71
2019-02-08T22:24:49.914Z,75.32
2019-02-08T22:27:16.567Z,75.22
2019-02-08T22:29:43.253Z,76.12
2019-02-08T22:32:09.849Z,76.50
2019-02-08T22:34:37.466Z,76.53
2019-02-08T22:37:04.060Z,75.83
2019-02-08T22:39:30.640Z,77.37
2019-02-08T22:41:57.286Z,76.22
2019-02-08T22:44:23.822Z,76.41
2019-02-08T22:46:53.125Z,76.11
2019-02-08T22:49:20.808Z,75.27
2019-02-08T22:51:47.386Z,76.26
2019-02-08T22:54:14.174Z,76.40
2019-02-08T22:56:40.855Z,75.90
2019-02-08T22:59:07.419Z,76.60
2019-02-08T23:01:35.672Z,76.41
2019-02-08T23:04:03.034Z,76.82
2019-02-08T23:06:29.606Z,75.97
2019-02-08T23:08:56.311Z,76.02
2019-02-08T23:11:22.966Z,75.88
2019-02-08T23:13:49.516Z,75.99
2019-02-08T23:16:16.596Z,76.43
2019-02-08T23:18:43.447Z,76.79
2019-02-08T23:21:10.047Z,77.07
2019-02-08T23:23:36.900Z,76.54
2019-02-08T23:26:03.759Z,76.28
2019-02-08T23:28:30.364Z,75.79
2019-02-08T23:30:56.921Z,76.05
2019-02-08T23:33:23.487Z,75.78
2019-02-08T23:35:50.072Z,76.31
2019-02-08T23:38:16.730Z,75.64
2019-02-08T23:40:44.775Z,75.70
2019-02-08T23:43:11.483Z,75.83
2019-02-08T23:45:38.171Z,74.92
2019-02-08T23:48:04.706Z,74.89
2019-02-08T23:50:31.324Z,75.49
2019-02-08T23:52:57.916Z,75.60
2019-02-08T23:55:26.315Z,74.88
2019-02-08T23:57:52.992Z,74.83
